Time;durP1;ratioP1;P1;durP2;ratioP2;P2;SDS_P1;SDS_P2;PMS_P1;PMS_P2;Temp;Humidity;BMP_temperature;BMP_pressure;BME280_temperature;BME280_humidity;BME280_pressure;Samples;Min_cycle;Max_cycle;Signal;HPM_P1;HPM_P2
2022/04/20 00:01:08;;;;;;;8.45;6.90;;;;;;;-0.97;77.81;96290.94;4994639;28;20476;-68
2022/04/20 00:03:34;;;;;;;8.02;7.13;;;;;;;-0.98;78.14;96287.50;4994469;28;20030;-67
2022/04/20 00:05:59;;;;;;;7.78;6.82;;;;;;;-0.99;78.18;96282.34;4994524;28;20027;-67
2022/04/20 00:08:25;;;;;;;7.88;6.82;;;;;;;-1.00;78.08;96281.50;4994469;28;20033;-63
2022/04/20 00:10:50;;;;;;;8.85;6.53;;;;;;;-0.95;78.01;96281.50;4994368;28;20508;-66
2022/04/20 00:13:16;;;;;;;8.90;7.63;;;;;;;-0.98;78.56;96284.06;4994245;28;20023;-66
2022/04/20 00:15:41;;;;;;;11.25;8.30;;;;;;;-0.98;78.53;96284.06;4994374;28;20019;-67
2022/04/20 00:18:07;;;;;;;11.52;8.85;;;;;;;-0.98;78.40;96284.06;4994290;28;20029;-63
2022/04/20 00:20:32;;;;;;;12.27;8.38;;;;;;;-0.95;78.65;96290.09;4994210;28;20513;-64
2022/04/20 00:22:58;;;;;;;10.90;8.00;;;;;;;-0.89;78.25;96284.09;4994297;28;20440;-64
2022/04/20 00:25:24;;;;;;;18.80;8.57;;;;;;;-0.97;77.91;96281.50;4994140;28;20473;-66
2022/04/20 00:27:49;;;;;;;11.57;8.73;;;;;;;-0.99;78.04;96288.38;4994120;28;20026;-64
2022/04/20 00:30:15;;;;;;;8.98;8.05;;;;;;;-0.93;78.42;96295.22;4994147;28;20076;-66
2022/04/20 00:32:41;;;;;;;10.45;8.05;;;;;;;-0.95;77.98;96286.66;4994183;28;20030;-65
2022/04/20 00:35:08;;;;;;;7.50;6.75;;;;;;;-0.94;77.71;96296.94;4994067;28;20445;-64
2022/04/20 00:37:34;;;;;;;8.05;6.80;;;;;;;-0.94;77.71;96296.94;4994052;28;20105;-67
2022/04/20 00:40:01;;;;;;;8.82;6.25;;;;;;;-0.94;77.69;96311.47;4993815;28;20078;-64
2022/04/20 00:42:27;;;;;;;8.30;5.93;;;;;;;-0.93;77.39;96313.19;4994034;28;20054;-63
2022/04/20 00:44:54;;;;;;;9.23;7.00;;;;;;;-0.97;77.52;96311.47;4993906;28;20042;-68
2022/04/20 00:47:22;;;;;;;9.55;7.35;;;;;;;-1.08;77.79;96309.69;4993765;28;20503;-67
2022/04/20 00:49:47;;;;;;;7.53;6.25;;;;;;;-1.07;77.90;96305.44;4993868;28;20105;-64
2022/04/20 00:52:14;;;;;;;13.25;11.25;;;;;;;-1.12;77.96;96307.13;4993881;28;20129;-65
2022/04/20 00:54:40;;;;;;;9.05;6.80;;;;;;;-1.22;77.93;96312.22;4992873;28;20077;-67
2022/04/20 00:57:06;;;;;;;12.35;8.07;;;;;;;-1.28;78.10;96312.19;4993739;28;20027;-63
2022/04/20 00:59:34;;;;;;;7.72;6.65;;;;;;;-1.28;78.04;96309.63;4993744;28;20101;-64
2022/04/20 01:02:00;;;;;;;7.72;5.93;;;;;;;-1.27;77.90;96311.31;4993669;28;20027;-65
2022/04/20 01:04:27;;;;;;;7.43;5.97;;;;;;;-1.25;77.64;96313.91;4993797;28;20030;-63
2022/04/20 01:06:53;;;;;;;9.38;6.55;;;;;;;-1.28;77.72;96309.63;4993684;28;20065;-65
2022/04/20 01:09:19;;;;;;;8.07;5.40;;;;;;;-1.28;77.49;96313.06;4993553;28;20120;-65
2022/04/20 01:11:45;;;;;;;7.15;5.93;;;;;;;-1.29;77.58;96311.31;4993574;28;20057;-64
2022/04/20 01:14:11;;;;;;;10.45;6.88;;;;;;;-1.31;77.51;96310.47;4993522;28;20065;-64
2022/04/20 01:16:37;;;;;;;9.40;7.18;;;;;;;-1.35;78.33;96306.19;4993676;28;20029;-68
2022/04/20 01:19:03;;;;;;;7.32;5.97;;;;;;;-1.40;78.28;96303.59;4993731;28;20377;-64
2022/04/20 01:21:29;;;;;;;8.00;6.75;;;;;;;-1.43;78.20;96303.56;4993519;28;20030;-66
2022/04/20 01:23:56;;;;;;;8.80;6.75;;;;;;;-1.54;78.44;96300.94;4993397;28;20041;-67
2022/04/20 01:26:21;;;;;;;11.15;7.93;;;;;;;-1.56;80.00;96300.03;4993462;28;20018;-67
2022/04/20 01:28:48;;;;;;;8.98;6.68;;;;;;;-1.51;79.34;96289.81;4993446;28;20038;-64
2022/04/20 01:31:17;;;;;;;7.28;6.15;;;;;;;-1.47;78.99;96298.41;4993575;28;20097;-66
2022/04/20 01:33:44;;;;;;;6.25;5.07;;;;;;;-1.47;78.96;96295.84;4993214;28;20029;-67
2022/04/20 01:36:11;;;;;;;7.75;6.75;;;;;;;-1.41;78.51;96301.84;4993275;28;20038;-66
2022/04/20 01:38:38;;;;;;;8.05;6.13;;;;;;;-1.40;78.47;96295.00;4993323;28;20026;-62
2022/04/20 01:41:05;;;;;;;8.13;6.22;;;;;;;-1.39;77.74;96296.72;4993271;28;20623;-65
2022/04/20 01:43:32;;;;;;;8.13;6.65;;;;;;;-1.40;77.94;96301.00;4992600;28;20038;-66
2022/04/20 01:45:57;;;;;;;7.22;6.28;;;;;;;-1.43;77.88;96288.16;4993238;28;20030;-64
2022/04/20 01:48:23;;;;;;;7.93;6.57;;;;;;;-1.44;78.05;96285.59;4993266;28;20026;-64
2022/04/20 01:53:33;;;;;;;11.57;6.53;;;;;;;-1.43;77.79;96287.28;4993472;28;20096;-62
2022/04/20 01:56:00;;;;;;;8.57;6.30;;;;;;;-1.48;77.86;96287.25;4993792;28;20026;-67
2022/04/20 01:58:26;;;;;;;8.80;6.57;;;;;;;-1.42;77.87;96286.44;4993560;28;20026;-63
2022/04/20 02:00:52;;;;;;;8.73;6.45;;;;;;;-1.41;77.68;96283.88;4993225;28;20068;-65
2022/04/20 02:03:17;;;;;;;8.43;6.80;;;;;;;-1.46;77.44;96284.72;4993250;28;20026;-63
2022/04/20 02:05:43;;;;;;;9.05;6.45;;;;;;;-1.50;77.29;96280.41;4993332;28;20027;-63
2022/04/20 02:08:09;;;;;;;9.88;8.05;;;;;;;-1.54;77.42;96269.25;4996763;28;20014;-67
2022/04/20 02:10:35;;;;;;;8.98;7.88;;;;;;;-1.58;77.50;96268.41;4996608;28;20031;-64
2022/04/20 02:13:00;;;;;;;9.15;8.02;;;;;;;-1.67;78.28;96268.34;4996649;28;20026;-63
2022/04/20 02:15:27;;;;;;;10.98;8.23;;;;;;;-1.71;78.12;96269.19;4996537;28;20069;-66
2022/04/20 02:17:52;;;;;;;10.02;8.38;;;;;;;-1.76;78.28;96271.72;4996579;28;20495;-66
2022/04/20 02:20:18;;;;;;;9.55;7.88;;;;;;;-1.78;78.21;96263.13;4996513;28;20018;-65
2022/04/20 02:22:43;;;;;;;12.85;8.55;;;;;;;-1.83;78.47;96260.56;4996512;28;20385;-65
2022/04/20 02:25:09;;;;;;;11.50;9.13;;;;;;;-1.84;78.59;96258.84;4996442;28;20121;-63
2022/04/20 02:27:35;;;;;;;14.52;9.77;;;;;;;-1.85;78.91;96266.50;4996430;28;20050;-66
2022/04/20 02:30:01;;;;;;;13.25;9.85;;;;;;;-1.92;79.36;96265.63;4996277;28;20373;-68
2022/04/20 02:32:27;;;;;;;14.55;10.73;;;;;;;-1.92;79.37;96269.03;4996207;28;20380;-63
2022/04/20 02:34:52;;;;;;;15.35;13.02;;;;;;;-1.88;79.24;96275.06;4996143;28;20034;-67
2022/04/20 02:37:18;;;;;;;13.32;9.38;;;;;;;-1.90;79.59;96274.19;4996245;28;20054;-67
2022/04/20 02:39:44;;;;;;;13.05;8.73;;;;;;;-1.87;79.45;96269.06;4996074;28;20078;-63
2022/04/20 02:42:11;;;;;;;14.10;9.85;;;;;;;-1.89;79.11;96270.78;4996208;28;20049;-66
2022/04/20 02:44:39;;;;;;;10.98;8.85;;;;;;;-1.87;79.00;96269.06;4996008;28;20029;-68
2022/04/20 02:47:05;;;;;;;10.80;8.27;;;;;;;-1.85;78.70;96274.22;4996025;28;20027;-65
2022/04/20 02:49:31;;;;;;;11.43;8.65;;;;;;;-1.84;78.98;96274.22;4995911;28;20022;-62
2022/04/20 02:51:56;;;;;;;11.02;8.88;;;;;;;-1.89;79.18;96293.00;4996002;28;20026;-63
2022/04/20 02:54:22;;;;;;;11.68;8.30;;;;;;;-1.88;79.20;96284.44;4996019;28;20042;-62
2022/04/20 02:56:47;;;;;;;13.10;9.50;;;;;;;-1.86;79.09;96285.31;4995981;28;20101;-66
2022/04/20 02:59:13;;;;;;;12.35;9.50;;;;;;;-1.84;78.97;96281.06;4995959;28;20022;-66
2022/04/20 03:01:39;;;;;;;10.30;8.73;;;;;;;-1.84;78.69;96284.47;4995713;28;20432;-64
2022/04/20 03:04:04;;;;;;;10.18;7.90;;;;;;;-1.82;78.12;96281.94;4995718;28;20465;-63
2022/04/20 03:06:30;;;;;;;11.57;8.70;;;;;;;-1.95;78.27;96289.56;4995820;28;20023;-64
2022/04/20 03:08:56;;;;;;;11.27;9.15;;;;;;;-1.95;78.66;96287.00;4995639;28;20030;-64
2022/04/20 03:11:22;;;;;;;11.40;7.97;;;;;;;-2.02;79.08;96287.75;4995472;28;20503;-63
2022/04/20 03:13:48;;;;;;;11.05;8.90;;;;;;;-2.00;79.18;96283.53;4995420;28;20027;-66
2022/04/20 03:16:15;;;;;;;11.98;9.32;;;;;;;-1.96;79.41;96292.94;4995595;28;20429;-64
2022/04/20 03:18:41;;;;;;;9.85;8.27;;;;;;;-1.95;79.15;96291.25;4994616;28;20026;-66
2022/04/20 03:21:07;;;;;;;8.23;6.85;;;;;;;-1.92;78.72;96291.28;4995286;28;20037;-67
2022/04/20 03:23:32;;;;;;;12.00;8.27;;;;;;;-1.90;78.56;96297.25;4995353;28;20022;-67
2022/04/20 03:25:58;;;;;;;9.95;8.60;;;;;;;-1.92;78.16;96294.69;4995300;28;20105;-67
2022/04/20 03:28:24;;;;;;;8.80;7.68;;;;;;;-1.91;78.36;96286.16;4995161;28;20113;-67
2022/04/20 03:30:50;;;;;;;9.50;6.65;;;;;;;-1.86;77.98;96286.19;4995200;28;20081;-66
2022/04/20 03:33:16;;;;;;;15.50;10.50;;;;;;;-1.85;77.85;96287.03;4995185;28;20068;-66
2022/04/20 03:35:43;;;;;;;10.65;9.02;;;;;;;-1.81;77.76;96297.31;4995041;28;20034;-63
2022/04/20 03:38:09;;;;;;;10.07;7.88;;;;;;;-1.85;77.78;96290.47;4994984;28;20102;-66
2022/04/20 03:40:35;;;;;;;10.88;8.55;;;;;;;-1.89;77.71;96296.44;4994705;28;20440;-64
2022/04/20 03:43:03;;;;;;;10.63;8.63;;;;;;;-1.99;78.33;96310.88;4994891;28;20023;-66
2022/04/20 03:45:29;;;;;;;8.82;7.57;;;;;;;-1.96;78.61;96308.31;4994899;28;20031;-66
2022/04/20 03:47:55;;;;;;;10.27;8.55;;;;;;;-1.96;78.31;96307.50;4994832;28;20076;-63
2022/04/20 03:50:20;;;;;;;8.55;6.75;;;;;;;-1.96;78.53;96312.63;4994935;28;20054;-64
2022/04/20 03:52:46;;;;;;;8.52;6.57;;;;;;;-1.89;79.21;96323.75;4994706;28;20080;-65
2022/04/20 03:55:12;;;;;;;7.28;6.25;;;;;;;-1.99;79.44;96328.81;4994581;28;20033;-66
2022/04/20 03:57:38;;;;;;;8.50;7.53;;;;;;;-2.01;79.52;96327.97;4994634;28;20029;-68
2022/04/20 04:00:05;;;;;;;11.52;6.88;;;;;;;-1.92;79.37;96325.44;4994584;28;20018;-68
2022/04/20 04:02:30;;;;;;;8.43;6.25;;;;;;;-1.79;79.12;96321.28;4994514;28;20029;-65
2022/04/20 04:04:56;;;;;;;12.38;5.82;;;;;;;-1.60;79.53;96320.56;4994483;28;20101;-62
2022/04/20 04:07:22;;;;;;;8.63;6.10;;;;;;;-1.27;79.30;96324.16;4994618;28;20031;-63
2022/04/20 04:09:48;;;;;;;6.75;5.32;;;;;;;-0.86;77.64;96319.22;4994404;28;20030;-65
2022/04/20 04:12:14;;;;;;;6.47;5.43;;;;;;;-0.39;77.52;96322.78;4994434;28;20022;-66
2022/04/20 04:14:41;;;;;;;6.82;5.47;;;;;;;0.09;76.40;96322.81;4994293;28;20153;-66
2022/04/20 04:17:08;;;;;;;8.30;5.90;;;;;;;0.52;74.62;96313.34;4994416;28;20023;-62
2022/04/20 04:19:35;;;;;;;5.63;5.13;;;;;;;0.97;73.00;96320.94;4994320;28;20027;-62
2022/04/20 04:22:04;;;;;;;5.03;4.53;;;;;;;1.50;71.62;96322.44;4994255;28;20033;-67
2022/04/20 04:24:37;;;;;;;4.15;3.75;;;;;;;2.05;70.27;96330.69;4994141;28;20039;-63
2022/04/20 04:27:08;;;;;;;5.03;4.45;;;;;;;2.60;68.30;96323.34;4994158;28;20037;-67
2022/04/20 04:29:35;;;;;;;5.72;4.00;;;;;;;3.10;66.08;96330.53;4994031;28;20496;-66
2022/04/20 04:32:01;;;;;;;6.22;4.55;;;;;;;3.54;64.47;96324.84;4993926;28;20076;-65
2022/04/20 04:34:27;;;;;;;4.05;3.65;;;;;;;3.97;63.66;96330.31;4993953;28;20029;-64
2022/04/20 04:36:54;;;;;;;4.20;3.80;;;;;;;4.41;62.01;96333.03;4994094;28;20442;-65
2022/04/20 04:39:21;;;;;;;4.28;3.88;;;;;;;4.75;61.49;96327.28;4993697;28;20026;-63
2022/04/20 04:41:50;;;;;;;4.40;3.47;;;;;;;5.16;59.70;96324.78;4994073;28;20030;-64
2022/04/20 04:44:18;;;;;;;4.05;3.55;;;;;;;5.50;59.07;96330.16;4993914;28;20030;-63
2022/04/20 04:49:29;;;;;;;5.00;3.65;;;;;;;6.01;57.44;96328.19;4994212;28;20117;-65
2022/04/20 04:51:55;;;;;;;4.07;3.65;;;;;;;6.28;56.66;96324.13;4993909;28;20080;-66
2022/04/20 04:54:22;;;;;;;4.57;3.80;;;;;;;6.50;56.15;96325.34;4993667;28;20023;-65
2022/04/20 04:56:48;;;;;;;4.82;3.92;;;;;;;6.79;55.67;96327.19;4993737;28;20037;-64
2022/04/20 04:59:15;;;;;;;4.40;4.00;;;;;;;7.18;55.46;96327.88;4993760;28;20101;-63
2022/04/20 05:01:40;;;;;;;4.60;3.35;;;;;;;7.45;54.93;96318.44;4993717;28;20468;-64
2022/04/20 05:04:06;;;;;;;5.55;4.60;;;;;;;7.66;54.84;96325.66;4993661;28;20029;-65
2022/04/20 05:06:32;;;;;;;4.55;4.15;;;;;;;7.94;54.81;96323.06;4993739;28;20024;-62
2022/04/20 05:08:57;;;;;;;5.38;4.22;;;;;;;8.34;53.69;96317.50;4993691;28;20037;-64
2022/04/20 05:11:23;;;;;;;3.63;3.30;;;;;;;8.70;53.47;96322.41;4993627;28;20019;-63
2022/04/20 05:13:49;;;;;;;5.05;3.35;;;;;;;8.97;51.60;96318.91;4993561;28;20036;-63
2022/04/20 05:16:14;;;;;;;3.13;2.78;;;;;;;9.25;51.33;96327.50;4993604;28;20093;-62
2022/04/20 05:18:40;;;;;;;3.45;3.05;;;;;;;9.38;51.32;96327.91;4993606;28;20499;-63
2022/04/20 05:21:05;;;;;;;3.78;3.38;;;;;;;9.64;50.67;96331.31;4993496;28;20031;-62
2022/04/20 05:23:33;;;;;;;4.22;3.40;;;;;;;9.90;51.24;96335.53;4993492;28;20018;-62
2022/04/20 05:25:58;;;;;;;4.10;3.28;;;;;;;9.98;51.04;96337.88;4993368;28;20030;-63
2022/04/20 05:28:24;;;;;;;3.95;3.53;;;;;;;10.07;50.33;96344.50;4993547;28;20029;-63
2022/04/20 05:30:49;;;;;;;3.88;3.30;;;;;;;10.18;51.93;96344.91;4993481;28;20031;-62
2022/04/20 05:33:16;;;;;;;3.78;3.28;;;;;;;10.44;50.71;96352.63;4993468;28;20461;-63
2022/04/20 05:35:41;;;;;;;3.67;3.38;;;;;;;10.67;51.37;96343.88;4993375;28;20023;-63
2022/04/20 05:43:36;;;;;;;5.60;4.38;;;;;;;11.27;50.30;96329.16;4997313;28;20045;-64
2022/04/20 05:46:03;;;;;;;7.38;4.70;;;;;;;11.43;50.30;96328.44;4997289;28;20098;-62
2022/04/20 05:48:28;;;;;;;5.68;4.53;;;;;;;11.83;49.93;96326.63;4997234;28;20034;-63
2022/04/20 05:50:54;;;;;;;4.93;4.53;;;;;;;12.15;48.91;96328.69;4997114;28;20488;-62
2022/04/20 05:53:19;;;;;;;7.25;4.22;;;;;;;12.28;50.48;96322.88;4997010;28;20018;-63
2022/04/20 05:55:45;;;;;;;5.15;4.57;;;;;;;12.47;47.76;96312.31;4996926;28;20034;-63
2022/04/20 05:58:11;;;;;;;5.78;4.35;;;;;;;12.33;48.51;96318.25;4996918;28;20026;-61
2022/04/20 06:00:36;;;;;;;5.00;4.07;;;;;;;12.19;49.55;96301.41;4996777;28;20069;-63
2022/04/20 06:03:02;;;;;;;5.43;4.32;;;;;;;12.12;48.57;96298.25;4996921;28;20076;-61
2022/04/20 06:05:28;;;;;;;4.10;3.70;;;;;;;12.05;47.90;96296.81;4996903;28;20041;-62
2022/04/20 06:07:54;;;;;;;4.40;4.00;;;;;;;11.95;47.57;96296.38;4996825;28;20036;-61
2022/04/20 06:10:20;;;;;;;4.88;4.18;;;;;;;11.94;48.63;96302.56;4996878;28;20034;-63
2022/04/20 06:12:45;;;;;;;4.97;4.47;;;;;;;12.05;49.94;96306.44;4996701;28;20038;-63
2022/04/20 06:15:11;;;;;;;4.32;3.90;;;;;;;12.04;51.61;96302.13;4996559;28;20034;-63
2022/04/20 06:17:36;;;;;;;4.28;3.88;;;;;;;12.12;50.60;96294.75;4996532;28;20056;-62
2022/04/20 06:20:02;;;;;;;3.75;3.13;;;;;;;12.25;51.07;96295.00;4996678;28;20027;-62
2022/04/20 06:22:28;;;;;;;3.30;2.95;;;;;;;12.23;49.65;96286.38;4996531;28;20026;-63
2022/04/20 06:24:53;;;;;;;3.80;3.50;;;;;;;12.17;50.50;96287.53;4996455;28;20030;-63
2022/04/20 06:27:21;;;;;;;4.35;3.45;;;;;;;12.35;49.74;96283.16;4996542;28;20065;-63
2022/04/20 06:29:46;;;;;;;3.65;3.35;;;;;;;12.37;49.54;96290.94;4996340;28;20030;-63
2022/04/20 06:32:12;;;;;;;3.20;3.00;;;;;;;12.28;49.35;96286.16;4996387;28;20022;-62
2022/04/20 06:34:37;;;;;;;3.67;3.28;;;;;;;11.78;51.83;96293.72;4996113;28;20464;-63
2022/04/20 06:37:05;;;;;;;3.80;3.50;;;;;;;11.17;52.70;96292.03;4996308;28;20026;-62
2022/04/20 06:39:31;;;;;;;4.18;3.70;;;;;;;10.84;53.81;96293.44;4995925;28;20122;-62
2022/04/20 06:41:57;;;;;;;3.70;3.38;;;;;;;10.87;54.68;96285.47;4996270;28;20139;-62
2022/04/20 06:44:23;;;;;;;3.33;3.08;;;;;;;11.03;54.05;96290.06;4996243;28;20023;-63
2022/04/20 06:46:49;;;;;;;4.03;3.63;;;;;;;11.06;53.60;96281.22;4996064;28;20033;-63
2022/04/20 06:49:15;;;;;;;3.45;3.15;;;;;;;11.08;54.74;96280.22;4995969;28;20034;-63
2022/04/20 06:59:53;;;;;;;6.13;2.83;;;;;;;10.63;53.68;96283.91;4996177;28;20040;-64
2022/04/20 07:02:20;;;;;;;3.58;3.28;;;;;;;10.60;52.99;96287.53;4995941;28;20105;-62
2022/04/20 07:04:46;;;;;;;3.15;2.85;;;;;;;10.32;52.96;96284.25;4995643;28;20126;-63
2022/04/20 07:07:12;;;;;;;4.00;3.60;;;;;;;10.06;54.35;96290.53;4995667;28;20520;-63
2022/04/20 07:09:38;;;;;;;3.83;3.53;;;;;;;9.92;53.59;96299.78;4995691;28;20094;-63
2022/04/20 07:12:04;;;;;;;5.03;4.20;;;;;;;9.88;55.97;96295.59;4995582;28;20114;-64
2022/04/20 07:14:30;;;;;;;7.05;5.40;;;;;;;9.86;57.06;96297.38;4995496;28;20040;-63
2022/04/20 07:16:55;;;;;;;9.23;5.80;;;;;;;9.83;57.56;96287.91;4995475;28;20447;-64
2022/04/20 07:19:21;;;;;;;7.82;7.03;;;;;;;9.86;58.94;96284.31;4995487;28;20037;-63
2022/04/20 07:21:47;;;;;;;7.03;6.43;;;;;;;10.03;58.63;96291.53;4995374;28;20030;-63
2022/04/20 07:24:12;;;;;;;9.35;7.25;;;;;;;10.09;58.03;96293.84;4995340;28;20029;-63
2022/04/20 07:26:38;;;;;;;13.15;8.35;;;;;;;10.18;58.34;96284.78;4977903;28;20382;-63
2022/04/20 07:29:03;;;;;;;15.82;9.95;;;;;;;10.12;59.26;96285.06;4995305;28;20022;-64
2022/04/20 07:31:29;;;;;;;14.55;11.40;;;;;;;9.98;60.21;96283.00;4995213;28;20030;-62
2022/04/20 07:33:54;;;;;;;17.35;12.35;;;;;;;9.82;60.54;96278.38;4995022;28;20512;-62
2022/04/20 07:36:21;;;;;;;15.27;12.25;;;;;;;9.86;61.00;96273.88;4995157;28;20027;-63
2022/04/20 07:38:48;;;;;;;14.90;12.00;;;;;;;9.61;61.54;96270.44;4995013;28;20031;-64
2022/04/20 07:41:15;;;;;;;18.63;13.13;;;;;;;9.50;61.52;96271.78;4994919;28;20050;-63
2022/04/20 07:43:41;;;;;;;21.90;14.13;;;;;;;9.57;61.21;96271.47;4995054;28;20108;-62
2022/04/20 07:46:06;;;;;;;17.63;14.23;;;;;;;9.74;60.74;96267.38;4995095;28;20084;-62
2022/04/20 07:48:32;;;;;;;21.55;13.45;;;;;;;9.84;60.53;96260.00;4994921;28;20052;-64
2022/04/20 07:51:00;;;;;;;20.95;14.20;;;;;;;9.97;60.18;96266.44;4994804;28;20018;-62
2022/04/20 07:53:27;;;;;;;20.48;13.88;;;;;;;9.91;60.25;96256.28;4994726;28;20109;-62
2022/04/20 07:55:53;;;;;;;19.67;14.90;;;;;;;9.82;61.34;96249.63;4994749;28;20568;-63
2022/04/20 07:58:18;;;;;;;20.77;13.98;;;;;;;9.76;61.30;96251.66;4994760;28;20105;-62
2022/04/20 08:00:45;;;;;;;19.58;15.30;;;;;;;9.81;61.38;96247.09;4994837;28;20080;-63
2022/04/20 08:03:16;;;;;;;18.42;13.80;;;;;;;9.98;60.69;96247.28;4994639;28;20033;-63
2022/04/20 08:05:42;;;;;;;;;;;;;;;10.03;60.31;96239.25;4994761;28;20089;-63
2022/04/20 08:08:10;;;;;;;19.08;13.70;;;;;;;10.10;60.16;96239.84;4994479;28;19914;-63
2022/04/20 08:10:36;;;;;;;20.20;13.52;;;;;;;10.04;60.19;96248.78;4994520;28;20038;-62
2022/04/20 08:14:09;;;;;;;20.10;15.38;;;;;;;9.96;60.98;96253.44;4994491;28;20030;-63
2022/04/20 08:15:57;;;;;;;18.13;14.60;;;;;;;9.79;62.00;96254.13;4994218;28;20038;-63
2022/04/20 08:18:24;;;;;;;19.23;14.20;;;;;;;9.62;61.80;96250.41;4994461;28;20030;-61
2022/04/20 08:20:50;;;;;;;17.23;14.13;;;;;;;9.46;62.17;96255.38;4994280;28;20033;-63
2022/04/20 08:23:16;;;;;;;15.88;12.35;;;;;;;9.49;58.96;96252.66;4994399;28;20034;-62
2022/04/20 08:25:43;;;;;;;16.08;13.07;;;;;;;9.46;58.62;96258.84;4994300;28;20053;-62
2022/04/20 08:28:10;;;;;;;21.23;14.48;;;;;;;9.16;62.73;96261.72;4994033;28;20030;-62
2022/04/20 08:30:37;;;;;;;17.75;13.68;;;;;;;9.14;61.88;96265.25;4994154;28;20412;-61
2022/04/20 08:33:06;;;;;;;17.08;13.52;;;;;;;9.20;61.66;96275.47;4994142;28;20480;-62
2022/04/20 08:35:32;;;;;;;17.95;14.18;;;;;;;9.23;62.01;96286.66;4994007;28;20073;-61
2022/04/20 08:37:58;;;;;;;17.02;13.32;;;;;;;8.85;61.36;96292.34;4993974;28;20030;-63
2022/04/20 08:40:25;;;;;;;17.48;15.02;;;;;;;8.61;63.73;96293.19;4993750;28;20125;-62
2022/04/20 08:42:52;;;;;;;17.10;13.90;;;;;;;8.51;61.60;96293.47;4993962;28;20050;-62
2022/04/20 08:45:20;;;;;;;23.15;14.85;;;;;;;8.35;65.22;96290.53;4993899;28;20022;-62
2022/04/20 08:47:49;;;;;;;21.95;16.55;;;;;;;8.31;66.26;96291.53;4993865;28;20484;-63
2022/04/20 08:50:15;;;;;;;21.13;15.05;;;;;;;8.42;64.45;96280.75;4993812;28;20388;-62
2022/04/20 08:52:42;;;;;;;18.67;14.13;;;;;;;8.31;63.43;96291.53;4993837;28;20113;-62
2022/04/20 08:55:13;;;;;;;16.88;14.00;;;;;;;8.12;64.41;96288.69;4993720;28;20109;-64
2022/04/20 08:57:40;;;;;;;20.30;13.77;;;;;;;7.89;62.62;96292.88;4993840;28;20034;-64
2022/04/20 09:00:11;;;;;;;18.48;13.52;;;;;;;7.76;65.41;96293.25;4993747;28;20045;-64
2022/04/20 09:02:38;;;;;;;15.80;11.88;;;;;;;7.83;65.54;96294.75;4993749;28;20097;-64
2022/04/20 09:05:05;;;;;;;13.65;10.32;;;;;;;7.77;65.34;96288.91;4993726;28;20018;-63
2022/04/20 09:07:31;;;;;;;11.57;9.95;;;;;;;7.82;65.25;96303.47;4993691;28;20050;-62
2022/04/20 09:09:57;;;;;;;11.00;9.50;;;;;;;7.91;64.51;96304.06;4993533;28;20022;-64
2022/04/20 09:12:23;;;;;;;12.00;9.70;;;;;;;7.94;65.56;96314.41;4993564;28;20015;-64
2022/04/20 09:14:51;;;;;;;15.15;10.35;;;;;;;7.96;64.31;96307.41;4993556;28;20500;-63
2022/04/20 09:17:21;;;;;;;11.82;10.38;;;;;;;8.05;65.61;96311.47;4996353;28;20014;-64
2022/04/20 09:19:49;;;;;;;12.55;8.73;;;;;;;8.06;63.99;96307.94;4997642;28;20022;-64
2022/04/20 09:22:32;;;;;;;12.85;10.93;;;;;;;8.01;62.81;96309.88;4997601;28;20035;-63
2022/04/20 09:25:03;;;;;;;16.45;10.13;;;;;;;8.08;62.48;96303.56;4997682;28;20026;-64
2022/04/20 09:27:30;;;;;;;15.45;10.45;;;;;;;8.22;62.26;96305.72;4997582;28;20396;-64
2022/04/20 09:29:57;;;;;;;12.45;10.27;;;;;;;8.30;62.43;96303.72;4997347;28;20453;-63
2022/04/20 09:32:39;;;;;;;13.30;11.13;;;;;;;8.39;62.46;96299.09;4997514;28;20101;-63
2022/04/20 09:35:10;;;;;;;13.27;10.98;;;;;;;8.51;62.66;96303.91;4997368;28;20473;-63
2022/04/20 09:37:36;;;;;;;16.70;9.80;;;;;;;8.62;62.80;96295.75;4997331;28;20061;-62
2022/04/20 09:40:05;;;;;;;14.90;11.40;;;;;;;8.78;62.36;96303.91;4997058;28;20057;-64
2022/04/20 09:42:33;;;;;;;12.77;10.77;;;;;;;8.82;63.85;96302.06;4997139;28;20085;-64
2022/04/20 09:45:04;;;;;;;12.18;10.30;;;;;;;8.79;64.12;96291.72;4997087;28;20027;-63
2022/04/20 09:50:22;;;;;;;9.18;7.75;;;;;;;8.95;62.11;96287.69;4997494;28;20422;-64
2022/04/20 09:52:49;;;;;;;8.57;6.53;;;;;;;9.07;62.15;96282.91;4997021;28;20053;-64
2022/04/20 09:55:36;;;;;;;7.57;6.25;;;;;;;9.17;60.13;96280.81;4997003;28;20027;-64
2022/04/20 09:58:17;;;;;;;5.80;5.15;;;;;;;9.23;59.60;96271.00;4996379;28;20097;-64
2022/04/20 10:00:47;;;;;;;6.07;5.10;;;;;;;9.30;60.51;96263.78;4996927;28;20114;-64
2022/04/20 10:03:24;;;;;;;8.88;5.68;;;;;;;9.31;58.51;96262.91;4996962;28;20109;-61
2022/04/20 10:05:49;;;;;;;5.35;4.68;;;;;;;9.44;56.28;96252.84;4996805;28;20041;-63
2022/04/20 10:08:15;;;;;;;5.70;5.10;;;;;;;9.63;57.84;96254.72;4996518;28;20035;-62
2022/04/20 10:10:42;;;;;;;5.15;4.43;;;;;;;9.84;55.89;96244.34;4996719;28;20026;-63
2022/04/20 10:13:10;;;;;;;5.25;4.75;;;;;;;9.92;55.21;96237.06;4996828;28;20027;-61
2022/04/20 10:18:22;;;;;;;4.07;3.70;;;;;;;10.09;54.20;96227.69;4996986;28;20065;-61
2022/04/20 10:20:52;;;;;;;4.68;4.22;;;;;;;10.17;55.98;96225.59;4996522;28;20046;-63
2022/04/20 10:23:21;;;;;;;4.43;4.03;;;;;;;10.22;54.47;96222.81;4979109;28;20463;-64
2022/04/20 10:25:50;;;;;;;5.32;4.90;;;;;;;10.16;56.07;96218.69;4996552;28;20061;-64
2022/04/20 10:28:24;;;;;;;4.50;4.10;;;;;;;10.03;58.52;96217.47;4996056;28;20022;-62
2022/04/20 10:31:01;;;;;;;4.80;4.30;;;;;;;10.08;57.29;96211.16;4996310;28;20031;-64
2022/04/20 10:33:31;;;;;;;4.93;4.38;;;;;;;10.24;57.61;96205.28;4996443;28;20396;-63
2022/04/20 10:36:01;;;;;;;6.28;4.30;;;;;;;10.27;55.50;96199.09;4996408;28;20084;-61
2022/04/20 10:38:32;;;;;;;5.05;4.55;;;;;;;10.11;54.66;96195.34;4996319;28;20043;-63
2022/04/20 10:41:12;;;;;;;4.95;4.55;;;;;;;10.15;59.42;96188.25;4996170;28;20133;-65
2022/04/20 10:43:39;;;;;;;5.85;4.90;;;;;;;10.33;56.32;96181.34;4996152;28;20027;-64
2022/04/20 10:46:15;;;;;;;5.68;5.07;;;;;;;10.41;56.63;96174.97;4996060;28;20113;-61
2022/04/20 10:49:15;;;;;;;5.20;4.80;;;;;;;10.45;56.47;96187.00;4996043;28;20042;-63
2022/04/20 10:51:46;;;;;;;6.30;4.63;;;;;;;10.49;57.46;96192.06;4995965;28;20038;-63
2022/04/20 10:54:22;;;;;;;5.13;4.63;;;;;;;10.70;57.49;96186.81;4995916;28;20030;-64
2022/04/20 10:57:00;;;;;;;6.82;5.50;;;;;;;10.83;59.15;96186.25;4995857;28;20085;-63
2022/04/20 10:59:26;;;;;;;9.73;6.30;;;;;;;10.83;59.50;96181.88;4995958;28;20050;-64
2022/04/20 11:02:04;;;;;;;4.32;3.92;;;;;;;10.87;55.56;96180.81;4995896;28;20031;-63
2022/04/20 11:04:50;;;;;;;6.00;4.63;;;;;;;11.03;58.77;96169.66;4995866;28;20118;-63
2022/04/20 11:07:30;;;;;;;5.90;4.40;;;;;;;10.96;56.78;96169.06;4995723;28;20388;-64
2022/04/20 11:09:58;;;;;;;4.15;3.85;;;;;;;11.03;57.53;96169.66;4995873;28;20057;-63
2022/04/20 11:21:06;;;;;;;6.57;4.80;;;;;;;10.92;59.60;96154.44;4995941;28;20100;-64
2022/04/20 11:23:59;;;;;;;5.47;4.78;;;;;;;10.79;59.17;96154.16;4995462;28;20034;-62
2022/04/20 11:26:51;;;;;;;5.30;4.80;;;;;;;10.69;60.33;96151.06;4995350;28;20484;-62
2022/04/20 11:29:22;;;;;;;6.00;4.72;;;;;;;10.59;59.30;96152.41;4995310;28;20041;-63
2022/04/20 11:31:54;;;;;;;5.95;5.45;;;;;;;10.32;61.70;96150.91;4995287;28;20029;-62
2022/04/20 11:34:21;;;;;;;5.53;4.93;;;;;;;10.33;62.49;96144.75;4995140;28;20033;-62
2022/04/20 11:36:53;;;;;;;4.68;4.28;;;;;;;10.40;58.96;96147.09;4995150;28;20384;-64
2022/04/20 11:39:20;;;;;;;5.07;4.63;;;;;;;10.45;59.00;96139.94;4994248;28;20041;-62
2022/04/20 11:41:48;;;;;;;5.07;4.57;;;;;;;10.53;59.61;96135.22;4995025;28;20510;-63
2022/04/20 11:44:21;;;;;;;5.78;5.28;;;;;;;10.58;60.92;96132.41;4994962;28;20030;-63
2022/04/20 11:46:50;;;;;;;5.97;5.38;;;;;;;10.65;60.41;96118.13;4994935;28;20022;-63
2022/04/20 11:49:17;;;;;;;6.72;5.35;;;;;;;10.71;60.15;96117.00;4994942;28;20057;-63
2022/04/20 11:52:06;;;;;;;5.10;4.60;;;;;;;10.69;60.52;96122.31;4994863;28;20069;-63
2022/04/20 11:54:33;;;;;;;5.45;4.45;;;;;;;10.72;58.82;96111.69;4992660;28;20104;-64
2022/04/20 11:56:59;;;;;;;5.28;4.85;;;;;;;10.91;59.94;96112.63;4994871;28;20053;-64
2022/04/20 11:59:24;;;;;;;5.75;5.25;;;;;;;11.11;59.91;96106.47;4994620;28;20358;-62
2022/04/20 12:01:51;;;;;;;4.85;4.45;;;;;;;10.96;58.38;96103.63;4994706;28;20030;-63
2022/04/20 12:04:18;;;;;;;4.65;4.22;;;;;;;10.76;58.18;96103.72;4994600;28;20042;-64
2022/04/20 12:06:45;;;;;;;6.35;5.00;;;;;;;10.76;59.11;96096.72;4994491;28;20026;-64